createdAt,value
2023-03-24T00:01:29.297Z,95298.47
2023-03-24T00:03:55.831Z,95287.56
2023-03-24T00:06:23.030Z,95301.13
2023-03-24T00:08:49.802Z,95277.47
2023-03-24T00:11:18.703Z,95248.16
2023-03-24T00:13:47.157Z,95273.22
2023-03-24T00:16:16.811Z,95279.00
2023-03-24T00:18:43.349Z,95261.56
2023-03-24T00:21:11.570Z,95240.22
2023-03-24T00:23:38.328Z,95259.06
2023-03-24T00:26:15.230Z,95250.97
2023-03-24T00:28:48.278Z,95249.72
2023-03-24T00:31:16.288Z,95237.09
2023-03-24T00:33:44.304Z,95234.59
2023-03-24T00:36:12.083Z,95212.50
2023-03-24T00:38:41.012Z,95231.97
2023-03-24T00:41:10.582Z,95232.75
2023-03-24T00:43:37.454Z,95249.41
2023-03-24T00:46:07.787Z,95225.28
2023-03-24T00:48:35.277Z,95248.47
2023-03-24T00:51:05.708Z,95241.00
2023-03-24T00:53:32.155Z,95226.66
2023-03-24T00:55:58.896Z,95248.59
2023-03-24T00:58:25.815Z,95247.38
2023-03-24T01:00:55.440Z,95242.03
2023-03-24T01:03:26.905Z,95258.09
2023-03-24T01:06:03.174Z,95249.88
2023-03-24T01:08:30.900Z,95249.06
2023-03-24T01:10:57.425Z,95248.94
2023-03-24T01:13:28.756Z,95240.94
2023-03-24T01:15:55.944Z,95261.97
2023-03-24T01:18:27.684Z,95257.59
2023-03-24T01:20:54.319Z,95244.00
2023-03-24T01:23:23.886Z,95253.94
2023-03-24T01:25:51.793Z,95232.44
2023-03-24T01:28:23.380Z,95239.16
2023-03-24T01:30:49.932Z,95224.50
2023-03-24T01:33:16.595Z,95216.72
2023-03-24T01:35:43.647Z,95222.66
2023-03-24T01:38:12.243Z,95215.19
2023-03-24T01:40:41.891Z,95175.81
2023-03-24T01:43:18.860Z,95207.78
2023-03-24T01:45:54.293Z,95216.66
2023-03-24T01:48:51.716Z,95191.75
2023-03-24T01:51:21.216Z,95213.56
2023-03-24T01:53:55.884Z,95205.50
2023-03-24T01:56:23.159Z,95192.25
2023-03-24T01:58:54.944Z,95218.91
2023-03-24T02:01:44.837Z,95203.78
2023-03-24T02:04:40.386Z,95204.72
2023-03-24T02:07:28.175Z,95205.78
2023-03-24T02:09:54.656Z,95220.13
2023-03-24T02:12:21.917Z,95215.13
2023-03-24T02:14:49.327Z,95205.47
2023-03-24T02:17:21.978Z,95219.94
2023-03-24T02:20:12.380Z,95217.75
2023-03-24T02:23:00.753Z,95216.31
2023-03-24T02:25:38.590Z,95211.47
2023-03-24T02:28:16.506Z,95206.53
2023-03-24T02:31:07.322Z,95203.22
2023-03-24T02:33:48.976Z,95206.50
2023-03-24T02:36:54.552Z,95202.50
2023-03-24T02:39:41.683Z,95214.63
2023-03-24T02:42:26.140Z,95200.75
2023-03-24T02:45:17.047Z,95195.50
2023-03-24T02:47:52.866Z,95183.34
2023-03-24T02:50:29.542Z,95195.66
2023-03-24T02:53:02.774Z,95197.81
2023-03-24T02:55:39.596Z,95180.34
2023-03-24T02:58:40.535Z,95203.44
2023-03-24T03:01:31.492Z,95201.84
2023-03-24T03:04:14.282Z,95189.03
2023-03-24T03:06:47.780Z,95207.88
2023-03-24T03:09:17.762Z,95202.31
2023-03-24T03:11:48.951Z,95166.59
2023-03-24T03:14:25.881Z,95180.44
2023-03-24T03:17:01.550Z,95155.94
2023-03-24T03:19:40.953Z,95190.06
2023-03-24T03:22:14.928Z,95167.78
2023-03-24T03:24:44.917Z,95147.47
2023-03-24T03:27:19.637Z,95166.47
2023-03-24T03:29:54.376Z,95155.72
2023-03-24T03:32:28.241Z,95145.41
2023-03-24T03:35:07.924Z,95153.38
2023-03-24T03:37:49.665Z,95147.31
2023-03-24T03:40:31.580Z,95116.56
2023-03-24T03:43:06.148Z,95120.00
2023-03-24T03:45:34.043Z,95098.69
2023-03-24T03:48:02.084Z,95093.72
2023-03-24T03:50:28.918Z,95059.47
2023-03-24T03:52:59.012Z,95080.81
2023-03-24T03:55:25.502Z,95088.31
2023-03-24T03:57:53.022Z,95085.50
2023-03-24T04:00:31.635Z,95087.19
2023-03-24T04:03:22.315Z,95093.72
2023-03-24T04:06:15.389Z,95095.75
2023-03-24T04:08:49.501Z,95087.34
2023-03-24T04:11:37.455Z,95096.50
2023-03-24T04:14:49.704Z,95082.81
2023-03-24T04:17:56.520Z,95082.34
2023-03-24T04:20:57.151Z,95085.03
2023-03-24T04:23:54.244Z,95084.88
2023-03-24T04:26:34.227Z,95082.34
2023-03-24T04:29:18.321Z,95089.19
2023-03-24T04:31:53.331Z,95082.81
2023-03-24T04:34:25.964Z,95083.75
2023-03-24T04:37:05.373Z,95084.41
2023-03-24T04:39:40.632Z,95080.81
2023-03-24T04:42:27.996Z,95079.25
2023-03-24T04:44:57.536Z,95050.16
2023-03-24T04:47:50.999Z,95083.59
2023-03-24T04:50:40.432Z,95089.69
2023-03-24T04:53:13.109Z,95100.09
2023-03-24T04:56:02.782Z,95104.75
2023-03-24T04:58:47.817Z,95099.59
2023-03-24T05:01:17.005Z,95099.47
2023-03-24T05:03:55.189Z,95066.84
2023-03-24T05:06:21.904Z,95093.66
2023-03-24T05:08:48.982Z,95052.59
2023-03-24T05:11:15.536Z,95098.03
2023-03-24T05:13:48.303Z,95105.03
2023-03-24T05:16:15.168Z,95108.75
2023-03-24T05:18:47.926Z,95110.31
2023-03-24T05:21:14.572Z,95128.03
2023-03-24T05:23:41.096Z,95091.56
2023-03-24T05:26:08.162Z,95161.81
2023-03-24T05:28:45.828Z,95161.03
2023-03-24T05:31:12.442Z,95157.25
2023-03-24T05:33:43.821Z,95171.22
2023-03-24T05:36:15.023Z,95165.19
2023-03-24T05:38:44.524Z,95149.78
2023-03-24T05:41:11.178Z,95135.72
2023-03-24T05:43:41.276Z,95123.09
2023-03-24T05:46:10.759Z,95104.69
2023-03-24T05:48:37.528Z,95077.31
2023-03-24T05:51:24.297Z,95124.66
2023-03-24T05:54:00.325Z,95129.13
2023-03-24T05:56:32.765Z,95125.25
2023-03-24T05:59:28.334Z,95144.56
2023-03-24T06:02:13.504Z,95148.13
2023-03-24T06:04:51.651Z,95136.75
2023-03-24T06:07:22.112Z,95141.63
2023-03-24T06:09:50.952Z,95112.66
2023-03-24T06:12:18.317Z,95110.91
2023-03-24T06:14:52.297Z,95098.47
2023-03-24T06:17:21.285Z,95090.56
2023-03-24T06:19:51.543Z,95095.47
2023-03-24T06:22:38.614Z,95092.53
2023-03-24T06:25:11.797Z,95096.28
2023-03-24T06:27:46.157Z,95106.25
2023-03-24T06:30:18.512Z,95104.09
2023-03-24T06:32:48.054Z,95089.00
2023-03-24T06:35:17.388Z,95091.63
2023-03-24T06:38:01.309Z,95084.19
2023-03-24T06:40:28.116Z,95093.53
2023-03-24T06:42:57.750Z,95102.88
2023-03-24T06:45:24.384Z,95088.72
2023-03-24T06:47:55.778Z,95089.22
2023-03-24T06:50:26.885Z,95074.28
2023-03-24T06:52:54.551Z,95060.56
2023-03-24T06:55:22.324Z,95099.16
2023-03-24T06:57:52.152Z,95087.34
2023-03-24T07:00:44.165Z,95093.59
2023-03-24T07:03:31.580Z,95089.22
2023-03-24T07:06:18.330Z,95089.81
2023-03-24T07:08:49.751Z,95076.59
2023-03-24T07:11:16.767Z,95084.41
2023-03-24T07:13:53.041Z,95103.06
2023-03-24T07:16:19.853Z,95078.78
2023-03-24T07:18:50.783Z,95111.16
2023-03-24T07:21:18.329Z,95098.69
2023-03-24T07:23:46.294Z,95140.38
2023-03-24T07:26:17.376Z,95114.81
2023-03-24T07:28:47.281Z,95154.19
2023-03-24T07:31:22.852Z,95134.41
2023-03-24T07:33:54.657Z,95158.84
2023-03-24T07:36:21.467Z,95141.56
2023-03-24T07:38:47.917Z,95156.34
2023-03-24T07:41:23.070Z,95190.91
2023-03-24T07:43:53.609Z,95197.28
2023-03-24T07:46:24.264Z,95187.13
2023-03-24T07:48:51.320Z,95200.03
2023-03-24T07:51:19.916Z,95189.91
2023-03-24T07:53:52.814Z,95188.53
2023-03-24T07:56:32.014Z,95186.81
2023-03-24T07:59:01.342Z,95201.28
2023-03-24T08:01:38.398Z,95212.06
2023-03-24T08:04:13.020Z,95208.31
2023-03-24T08:06:55.563Z,95184.78
2023-03-24T08:09:24.155Z,95201.00
2023-03-24T08:11:51.485Z,95200.34
2023-03-24T08:14:17.915Z,95204.41
2023-03-24T08:16:46.253Z,95194.16
2023-03-24T08:19:12.909Z,95222.34
2023-03-24T08:21:39.334Z,95196.34
2023-03-24T08:24:06.725Z,95203.34
2023-03-24T08:26:35.257Z,95206.63
2023-03-24T08:29:03.087Z,95203.84
2023-03-24T08:31:34.119Z,95212.28
2023-03-24T08:34:00.807Z,95209.63
2023-03-24T08:36:27.565Z,95198.25
2023-03-24T08:38:55.931Z,95197.78
2023-03-24T08:41:30.852Z,95179.88
2023-03-24T08:43:57.286Z,95205.91
2023-03-24T08:46:23.851Z,95213.69
2023-03-24T08:48:50.376Z,95199.81
2023-03-24T08:51:17.847Z,95215.56
2023-03-24T08:53:44.567Z,95187.19
2023-03-24T08:56:11.103Z,95235.81
2023-03-24T08:58:37.624Z,95249.03
2023-03-24T09:01:04.196Z,95251.06
2023-03-24T09:03:31.952Z,95236.25
2023-03-24T09:05:58.874Z,95224.75
2023-03-24T09:08:26.152Z,95250.78
2023-03-24T09:10:52.719Z,95185.66
2023-03-24T09:13:20.849Z,95251.41
2023-03-24T09:15:53.721Z,95227.75
2023-03-24T09:18:21.529Z,95266.25
2023-03-24T09:20:48.879Z,95261.09
2023-03-24T09:23:15.692Z,95259.06
2023-03-24T09:25:42.355Z,95217.16
2023-03-24T09:28:08.877Z,95259.53
2023-03-24T09:30:36.023Z,95268.25
2023-03-24T09:33:02.876Z,95275.41
2023-03-24T09:35:29.420Z,95268.56
2023-03-24T09:37:56.242Z,95265.31
2023-03-24T09:40:28.341Z,95255.78
2023-03-24T09:43:03.135Z,95296.13
2023-03-24T09:45:33.811Z,95304.06
2023-03-24T09:48:05.801Z,95276.81
2023-03-24T09:50:46.614Z,95264.19
2023-03-24T09:53:35.328Z,95299.88
2023-03-24T09:56:13.217Z,95297.50
2023-03-24T09:58:41.677Z,95305.91
2023-03-24T10:01:16.620Z,95296.03
2023-03-24T10:03:44.338Z,95300.13
2023-03-24T10:06:23.383Z,95316.31
2023-03-24T10:09:10.125Z,95312.44
2023-03-24T10:11:46.943Z,95309.00
2023-03-24T10:14:32.013Z,95303.88
2023-03-24T10:17:36.428Z,95310.25
2023-03-24T10:20:16.987Z,95301.69
2023-03-24T10:22:59.727Z,95311.16
2023-03-24T10:25:51.125Z,95313.34
2023-03-24T10:28:32.045Z,95327.88
2023-03-24T10:31:02.748Z,95322.22
2023-03-24T10:33:30.637Z,95312.56
2023-03-24T10:36:07.750Z,95341.88
2023-03-24T10:38:34.808Z,95329.38
2023-03-24T10:41:02.055Z,95331.56
2023-03-24T10:43:30.715Z,95312.56
2023-03-24T10:45:59.646Z,95335.03
2023-03-24T10:48:47.591Z,95335.34
2023-03-24T10:51:16.945Z,95324.13
2023-03-24T10:53:47.822Z,95320.84
2023-03-24T10:56:38.084Z,95329.28
2023-03-24T10:59:22.882Z,95313.22
2023-03-24T11:01:52.336Z,95320.41
2023-03-24T11:04:20.769Z,95324.78
2023-03-24T11:07:16.111Z,95327.28
2023-03-24T11:09:45.798Z,95335.06
2023-03-24T11:12:27.962Z,95332.75
2023-03-24T11:15:20.217Z,95324.16
2023-03-24T11:18:28.369Z,95333.47
2023-03-24T11:21:06.772Z,95307.13
2023-03-24T11:23:38.090Z,95323.78
2023-03-24T11:26:18.576Z,95318.66
2023-03-24T11:28:55.496Z,95308.69
2023-03-24T11:31:25.711Z,95297.75
2023-03-24T11:33:59.335Z,95291.53
2023-03-24T11:36:32.975Z,95300.44
2023-03-24T11:39:27.935Z,95262.28
2023-03-24T11:42:05.719Z,95278.53
2023-03-24T11:44:53.177Z,95262.34
2023-03-24T11:47:40.283Z,95261.09
2023-03-24T11:50:16.262Z,95253.16
2023-03-24T11:52:50.720Z,95263.88
2023-03-24T11:55:23.744Z,95257.34
2023-03-24T11:58:02.271Z,95256.53
2023-03-24T12:00:35.205Z,95259.00
2023-03-24T12:03:24.699Z,95236.34
2023-03-24T12:06:07.691Z,95251.88
2023-03-24T12:08:51.932Z,95232.38
2023-03-24T12:11:44.761Z,95245.31
2023-03-24T12:14:11.244Z,95216.41
2023-03-24T12:16:56.854Z,95212.16
2023-03-24T12:19:32.176Z,95220.72
2023-03-24T12:22:25.942Z,95195.88
2023-03-24T12:25:10.599Z,95217.94
2023-03-24T12:28:09.415Z,95224.50
2023-03-24T12:31:03.877Z,95215.22
2023-03-24T12:33:41.604Z,95219.50
2023-03-24T12:36:43.994Z,95237.19
2023-03-24T12:39:12.658Z,95224.66
2023-03-24T12:42:18.765Z,95238.06
2023-03-24T12:45:07.042Z,95237.31
2023-03-24T12:47:57.558Z,95232.47
2023-03-24T12:50:27.223Z,95245.31
2023-03-24T12:53:14.247Z,95240.00
2023-03-24T12:55:46.866Z,95251.66
2023-03-24T12:58:51.982Z,95235.19
2023-03-24T13:01:35.548Z,95226.91
2023-03-24T13:04:10.372Z,95243.00
2023-03-24T13:06:40.086Z,95248.59
2023-03-24T13:09:24.764Z,95235.31
2023-03-24T13:12:18.720Z,95239.28
2023-03-24T13:15:02.195Z,95259.63
2023-03-24T13:17:42.804Z,95231.41
2023-03-24T13:20:17.120Z,95218.00
2023-03-24T13:22:44.410Z,95210.84
2023-03-24T13:25:25.018Z,95226.13
2023-03-24T13:27:55.893Z,95211.66
2023-03-24T13:30:33.656Z,95186.44
2023-03-24T13:33:07.380Z,95220.06
2023-03-24T13:35:51.502Z,95202.13
2023-03-24T13:38:29.683Z,95192.34
2023-03-24T13:40:56.628Z,95172.19
2023-03-24T13:43:26.033Z,95178.47
2023-03-24T13:46:01.320Z,95184.75
2023-03-24T13:48:43.549Z,95191.16
2023-03-24T13:51:24.922Z,95198.63
2023-03-24T13:54:18.797Z,95202.53
2023-03-24T13:57:04.229Z,95190.56
2023-03-24T13:59:42.069Z,95178.06
2023-03-24T14:02:48.714Z,95150.75
2023-03-24T14:05:56.900Z,95135.34
2023-03-24T14:08:43.895Z,95141.41
2023-03-24T14:11:32.473Z,95158.13
2023-03-24T14:14:29.195Z,95155.38
2023-03-24T14:17:04.847Z,95170.63
2023-03-24T14:19:39.128Z,95168.91
2023-03-24T14:22:27.654Z,95165.94
2023-03-24T14:25:04.387Z,95161.28
2023-03-24T14:27:37.386Z,95155.03
2023-03-24T14:30:10.856Z,95157.88
2023-03-24T14:32:46.677Z,95115.44
2023-03-24T14:35:29.796Z,95137.81
2023-03-24T14:38:00.031Z,95120.53
2023-03-24T14:40:39.920Z,95110.97
2023-03-24T14:43:28.497Z,95108.34
2023-03-24T14:45:56.822Z,95097.31
2023-03-24T14:48:56.378Z,95109.63
2023-03-24T14:51:36.708Z,95116.78
2023-03-24T14:54:16.379Z,95127.22
2023-03-24T14:56:46.996Z,95145.47
2023-03-24T14:59:31.265Z,95159.94
2023-03-24T15:02:16.580Z,95138.00
2023-03-24T15:05:15.352Z,95163.97
2023-03-24T15:07:43.661Z,95151.69
2023-03-24T15:10:17.662Z,95163.16
2023-03-24T15:12:49.129Z,95163.78
2023-03-24T15:15:18.203Z,95149.47
2023-03-24T15:17:45.405Z,95144.34
2023-03-24T15:20:24.486Z,95165.19
2023-03-24T15:22:54.877Z,95152.16
2023-03-24T15:25:28.956Z,95167.38
2023-03-24T15:27:57.668Z,95157.31
2023-03-24T15:30:24.814Z,95143.78
2023-03-24T15:32:51.989Z,95150.31
2023-03-24T15:35:21.239Z,95166.50
2023-03-24T15:37:56.878Z,95167.91
2023-03-24T15:40:26.417Z,95184.44
2023-03-24T15:42:55.295Z,95162.78
2023-03-24T15:45:28.061Z,95184.44
2023-03-24T15:47:55.703Z,95192.81
2023-03-24T15:50:32.568Z,95190.81
2023-03-24T15:53:23.607Z,95210.94
2023-03-24T15:56:24.467Z,95171.09
2023-03-24T15:58:54.869Z,95178.69
2023-03-24T16:01:31.131Z,95198.94
2023-03-24T16:04:00.650Z,95209.81
2023-03-24T16:06:30.212Z,95237.72
2023-03-24T16:09:01.640Z,95242.22
2023-03-24T16:11:29.161Z,95235.50
2023-03-24T16:13:56.845Z,95239.03
2023-03-24T16:16:27.698Z,95246.63
2023-03-24T16:18:56.283Z,95210.94
2023-03-24T16:21:28.142Z,95212.56
2023-03-24T16:23:56.561Z,95243.41
2023-03-24T16:26:25.970Z,95244.00
2023-03-24T16:28:54.020Z,95242.81
2023-03-24T16:31:30.928Z,95234.81
2023-03-24T16:33:58.176Z,95220.03
2023-03-24T16:36:28.660Z,95226.53
2023-03-24T16:38:57.439Z,95238.66
2023-03-24T16:41:24.994Z,95226.94
2023-03-24T16:43:53.003Z,95196.19
2023-03-24T16:46:31.438Z,95207.09
2023-03-24T16:48:58.985Z,95212.81
2023-03-24T16:51:25.580Z,95225.59
2023-03-24T16:53:52.185Z,95199.19
2023-03-24T16:56:21.234Z,95177.22
2023-03-24T16:58:57.686Z,95142.91
2023-03-24T17:01:35.821Z,95155.25
2023-03-24T17:04:03.815Z,95179.31
2023-03-24T17:06:32.742Z,95176.63
2023-03-24T17:08:59.580Z,95207.78
2023-03-24T17:11:31.527Z,95223.72
2023-03-24T17:14:11.955Z,95226.56
2023-03-24T17:16:43.477Z,95221.16
2023-03-24T17:19:16.541Z,95220.97
2023-03-24T17:22:04.622Z,95225.03
2023-03-24T17:24:35.770Z,95235.78
2023-03-24T17:27:03.279Z,95231.59
2023-03-24T17:29:29.775Z,95210.22
2023-03-24T17:31:56.378Z,95224.31
2023-03-24T17:34:23.075Z,95215.25
2023-03-24T17:36:50.814Z,95225.72
2023-03-24T17:39:19.482Z,95210.47
2023-03-24T17:41:46.091Z,95203.41
2023-03-24T17:44:12.720Z,95202.72
2023-03-24T17:46:39.252Z,95203.22
2023-03-24T17:49:06.388Z,95208.91
2023-03-24T17:51:33.155Z,95220.19
2023-03-24T17:53:59.809Z,95223.56
2023-03-24T17:56:26.571Z,95228.22
2023-03-24T17:58:54.720Z,95232.38
2023-03-24T18:01:21.933Z,95215.94
2023-03-24T18:03:49.696Z,95218.28
2023-03-24T18:06:16.876Z,95218.38
2023-03-24T18:08:44.260Z,95230.81
2023-03-24T18:11:14.518Z,95234.34
2023-03-24T18:13:42.471Z,95241.25
2023-03-24T18:16:20.745Z,95230.19
2023-03-24T18:18:49.160Z,95247.19
2023-03-24T18:21:16.156Z,95205.44
2023-03-24T18:23:43.272Z,95234.72
2023-03-24T18:26:09.987Z,95240.81
2023-03-24T18:28:38.860Z,95246.84
2023-03-24T18:31:15.367Z,95254.69
2023-03-24T18:33:43.008Z,95242.06
2023-03-24T18:36:10.345Z,95245.91
2023-03-24T18:38:37.273Z,95259.78
2023-03-24T18:41:06.339Z,95264.47
2023-03-24T18:43:41.072Z,95267.41
2023-03-24T18:46:09.748Z,95245.34
2023-03-24T18:48:41.888Z,95240.28
2023-03-24T18:51:08.890Z,95255.09
2023-03-24T18:53:35.418Z,95249.34
2023-03-24T18:56:04.239Z,95257.94
2023-03-24T18:58:30.996Z,95267.88
2023-03-24T19:00:58.870Z,95270.13
2023-03-24T19:03:26.284Z,95258.34
2023-03-24T19:05:55.828Z,95276.22
2023-03-24T19:08:22.891Z,95288.72
2023-03-24T19:10:49.441Z,95272.31
2023-03-24T19:13:17.031Z,95305.72
2023-03-24T19:15:47.970Z,95311.78
2023-03-24T19:18:14.949Z,95299.78
2023-03-24T19:20:42.018Z,95314.91
2023-03-24T19:23:08.822Z,95314.50
2023-03-24T19:25:35.375Z,95321.44
2023-03-24T19:28:01.817Z,95311.78
2023-03-24T19:30:28.337Z,95291.88
2023-03-24T19:32:54.861Z,95311.97
2023-03-24T19:35:21.522Z,95293.81
2023-03-24T19:37:48.229Z,95330.91
2023-03-24T19:40:15.605Z,95334.22
2023-03-24T19:42:44.713Z,95364.53
2023-03-24T19:45:13.465Z,95375.16
2023-03-24T19:47:39.967Z,95370.66
2023-03-24T19:50:08.379Z,95358.56
2023-03-24T19:52:38.761Z,95333.34
2023-03-24T19:55:06.651Z,95362.75
2023-03-24T19:57:33.421Z,95355.06
2023-03-24T20:00:00.646Z,95363.16
2023-03-24T20:02:28.070Z,95381.91
2023-03-24T20:04:55.654Z,95377.13
2023-03-24T20:07:23.078Z,95353.59
2023-03-24T20:09:49.574Z,95341.94
2023-03-24T20:12:16.258Z,95335.09
2023-03-24T20:14:42.919Z,95351.53
2023-03-24T20:17:17.028Z,95341.94
2023-03-24T20:19:43.878Z,95336.19
2023-03-24T20:22:10.817Z,95330.31
2023-03-24T20:24:40.353Z,95305.81
2023-03-24T20:27:07.621Z,95326.22
2023-03-24T20:29:34.791Z,95301.50
2023-03-24T20:32:02.235Z,95339.81
2023-03-24T20:34:28.937Z,95339.78
2023-03-24T20:36:56.056Z,95336.75
2023-03-24T20:39:22.995Z,95325.72
2023-03-24T20:41:49.689Z,95327.66
2023-03-24T20:44:16.265Z,95300.50
2023-03-24T20:46:44.801Z,95317.31
2023-03-24T20:49:16.402Z,95308.03
2023-03-24T20:51:44.236Z,95302.94
2023-03-24T20:54:11.179Z,95312.03
2023-03-24T20:56:37.871Z,95292.06
2023-03-24T20:59:06.805Z,95298.84
2023-03-24T21:01:37.297Z,95289.34
2023-03-24T21:04:09.019Z,95304.56
2023-03-24T21:06:38.166Z,95309.03
2023-03-24T21:09:05.152Z,95304.22
2023-03-24T21:11:32.198Z,95309.91
2023-03-24T21:13:58.921Z,95309.13
2023-03-24T21:16:26.650Z,95319.19
2023-03-24T21:18:54.375Z,95327.09
2023-03-24T21:21:21.060Z,95313.59
2023-03-24T21:23:47.647Z,95310.69
2023-03-24T21:26:17.988Z,95310.50
2023-03-24T21:28:45.298Z,95326.28
2023-03-24T21:31:23.090Z,95324.66
2023-03-24T21:33:50.609Z,95325.47
2023-03-24T21:36:17.804Z,95324.19
2023-03-24T21:38:44.830Z,95328.41
2023-03-24T21:41:11.663Z,95324.88
2023-03-24T21:43:40.404Z,95335.16
2023-03-24T21:46:14.804Z,95319.09
2023-03-24T21:48:51.029Z,95316.97
2023-03-24T21:51:20.272Z,95335.59
2023-03-24T21:53:47.760Z,95335.78
2023-03-24T21:56:14.494Z,95328.56
2023-03-24T21:58:41.446Z,95355.16
2023-03-24T22:01:08.907Z,95362.91
2023-03-24T22:03:37.215Z,95352.66
2023-03-24T22:06:05.515Z,95365.84
2023-03-24T22:08:32.462Z,95339.03
2023-03-24T22:11:04.115Z,95358.66
2023-03-24T22:13:32.215Z,95362.31
2023-03-24T22:16:01.392Z,95369.41
2023-03-24T22:18:30.364Z,95356.59
2023-03-24T22:21:03.215Z,95360.31
2023-03-24T22:23:33.452Z,95379.09
2023-03-24T22:26:07.117Z,95379.66
2023-03-24T22:28:34.878Z,95381.22
2023-03-24T22:31:03.378Z,95384.00
2023-03-24T22:33:30.117Z,95362.84
2023-03-24T22:35:57.755Z,95381.50
2023-03-24T22:38:25.231Z,95362.84
2023-03-24T22:40:55.989Z,95368.34
2023-03-24T22:43:22.509Z,95354.06
2023-03-24T22:45:49.148Z,95367.72
2023-03-24T22:48:15.884Z,95375.38
2023-03-24T22:50:42.481Z,95375.59
2023-03-24T22:53:09.354Z,95385.34
2023-03-24T22:55:36.715Z,95380.63
2023-03-24T22:58:03.327Z,95377.44
2023-03-24T23:00:31.524Z,95390.16
2023-03-24T23:02:58.228Z,95386.34
2023-03-24T23:05:25.025Z,95391.28
2023-03-24T23:07:52.642Z,95383.47
2023-03-24T23:10:19.532Z,95386.59
2023-03-24T23:12:46.146Z,95403.38
2023-03-24T23:15:14.062Z,95405.41
2023-03-24T23:17:42.618Z,95404.44
2023-03-24T23:20:12.075Z,95411.06
2023-03-24T23:22:38.997Z,95408.09
2023-03-24T23:25:06.984Z,95396.06
2023-03-24T23:27:37.901Z,95406.88
2023-03-24T23:30:07.027Z,95403.53
2023-03-24T23:32:34.353Z,95410.94
2023-03-24T23:35:02.808Z,95412.34
2023-03-24T23:37:33.443Z,95412.69
2023-03-24T23:40:06.467Z,95421.53
2023-03-24T23:42:33.589Z,95410.28
2023-03-24T23:45:00.104Z,95415.63
2023-03-24T23:47:26.640Z,95420.00
2023-03-24T23:49:53.101Z,95426.91
2023-03-24T23:52:19.575Z,95413.25
2023-03-24T23:54:46.516Z,95416.81
2023-03-24T23:57:13.302Z,95396.59
2023-03-24T23:59:39.890Z,95425.44
